sensor_id;sensor_type;location;lat;lon;timestamp;P1;durP1;ratioP1;P2;durP2;ratioP2
5795;SDS011;2924;51.458;7.046;2024-03-23T00:55:35;20.87;;;5.87;;
5795;SDS011;2924;51.458;7.046;2024-03-23T00:58:01;30.50;;;5.00;;
5795;SDS011;2924;51.458;7.046;2024-03-23T01:00:26;16.80;;;5.20;;
5795;SDS011;2924;51.458;7.046;2024-03-23T01:02:52;18.50;;;3.97;;
5795;SDS011;2924;51.458;7.046;2024-03-23T01:05:18;21.80;;;5.20;;
5795;SDS011;2924;51.458;7.046;2024-03-23T01:07:43;21.20;;;4.50;;
5795;SDS011;2924;51.458;7.046;2024-03-23T01:10:09;21.43;;;3.87;;
5795;SDS011;2924;51.458;7.046;2024-03-23T01:12:34;19.77;;;3.93;;
5795;SDS011;2924;51.458;7.046;2024-03-23T01:15:00;30.87;;;4.80;;
5795;SDS011;2924;51.458;7.046;2024-03-23T01:17:25;27.60;;;4.90;;
5795;SDS011;2924;51.458;7.046;2024-03-23T01:19:51;22.10;;;3.73;;
5795;SDS011;2924;51.458;7.046;2024-03-23T01:22:17;22.97;;;4.80;;
5795;SDS011;2924;51.458;7.046;2024-03-23T01:24:43;18.77;;;4.83;;
5795;SDS011;2924;51.458;7.046;2024-03-23T01:27:08;20.30;;;4.67;;
5795;SDS011;2924;51.458;7.046;2024-03-23T01:29:34;17.63;;;4.93;;
5795;SDS011;2924;51.458;7.046;2024-03-23T01:32:00;20.03;;;4.57;;
5795;SDS011;2924;51.458;7.046;2024-03-23T01:34:26;26.30;;;3.57;;
5795;SDS011;2924;51.458;7.046;2024-03-23T01:36:52;18.33;;;3.80;;
5795;SDS011;2924;51.458;7.046;2024-03-23T01:39:18;18.63;;;3.70;;
5795;SDS011;2924;51.458;7.046;2024-03-23T01:41:44;25.07;;;3.60;;
5795;SDS011;2924;51.458;7.046;2024-03-23T01:44:09;13.63;;;2.97;;
5795;SDS011;2924;51.458;7.046;2024-03-23T01:46:36;21.63;;;3.70;;
5795;SDS011;2924;51.458;7.046;2024-03-23T01:49:02;15.77;;;3.53;;
5795;SDS011;2924;51.458;7.046;2024-03-23T01:51:30;15.00;;;3.87;;
5795;SDS011;2924;51.458;7.046;2024-03-23T01:53:56;13.47;;;2.70;;
5795;SDS011;2924;51.458;7.046;2024-03-23T01:56:22;15.10;;;3.00;;
5795;SDS011;2924;51.458;7.046;2024-03-23T01:58:48;8.60;;;3.17;;
5795;SDS011;2924;51.458;7.046;2024-03-23T02:01:13;4.27;;;2.83;;
5795;SDS011;2924;51.458;7.046;2024-03-23T02:03:39;18.63;;;4.23;;
5795;SDS011;2924;51.458;7.046;2024-03-23T02:06:04;5.70;;;2.70;;
5795;SDS011;2924;51.458;7.046;2024-03-23T02:08:32;13.20;;;3.20;;
5795;SDS011;2924;51.458;7.046;2024-03-23T02:10:58;12.47;;;3.40;;
5795;SDS011;2924;51.458;7.046;2024-03-23T02:13:23;16.67;;;3.03;;
5795;SDS011;2924;51.458;7.046;2024-03-23T02:15:49;8.77;;;2.23;;
5795;SDS011;2924;51.458;7.046;2024-03-23T02:18:15;6.87;;;2.40;;
5795;SDS011;2924;51.458;7.046;2024-03-23T02:20:40;11.17;;;2.23;;
5795;SDS011;2924;51.458;7.046;2024-03-23T02:23:12;15.07;;;3.10;;
5795;SDS011;2924;51.458;7.046;2024-03-23T02:25:41;13.23;;;2.73;;
5795;SDS011;2924;51.458;7.046;2024-03-23T02:28:07;11.87;;;2.60;;
5795;SDS011;2924;51.458;7.046;2024-03-23T02:30:33;15.07;;;3.40;;
5795;SDS011;2924;51.458;7.046;2024-03-23T02:32:59;7.70;;;2.50;;
5795;SDS011;2924;51.458;7.046;2024-03-23T02:35:24;8.80;;;2.50;;
5795;SDS011;2924;51.458;7.046;2024-03-23T02:37:50;11.50;;;2.63;;
5795;SDS011;2924;51.458;7.046;2024-03-23T02:40:16;15.33;;;2.30;;
5795;SDS011;2924;51.458;7.046;2024-03-23T02:42:42;12.43;;;2.90;;
5795;SDS011;2924;51.458;7.046;2024-03-23T02:45:08;8.53;;;1.90;;
5795;SDS011;2924;51.458;7.046;2024-03-23T02:47:34;5.03;;;1.70;;
5795;SDS011;2924;51.458;7.046;2024-03-23T02:49:59;8.53;;;2.10;;
5795;SDS011;2924;51.458;7.046;2024-03-23T02:52:25;7.70;;;2.10;;
5795;SDS011;2924;51.458;7.046;2024-03-23T02:54:50;6.87;;;1.90;;
5795;SDS011;2924;51.458;7.046;2024-03-23T02:57:16;9.70;;;2.00;;
5795;SDS011;2924;51.458;7.046;2024-03-23T02:59:42;7.50;;;2.10;;
5795;SDS011;2924;51.458;7.046;2024-03-23T03:02:07;11.30;;;2.77;;
5795;SDS011;2924;51.458;7.046;2024-03-23T03:04:33;11.10;;;2.23;;
5795;SDS011;2924;51.458;7.046;2024-03-23T03:06:59;15.00;;;2.87;;
5795;SDS011;2924;51.458;7.046;2024-03-23T03:09:25;15.13;;;2.67;;
5795;SDS011;2924;51.458;7.046;2024-03-23T03:11:51;8.63;;;1.80;;
5795;SDS011;2924;51.458;7.046;2024-03-23T03:14:16;16.63;;;1.80;;
5795;SDS011;2924;51.458;7.046;2024-03-23T03:16:42;7.13;;;1.83;;
5795;SDS011;2924;51.458;7.046;2024-03-23T03:19:08;5.77;;;1.63;;
5795;SDS011;2924;51.458;7.046;2024-03-23T03:21:35;5.50;;;1.80;;
5795;SDS011;2924;51.458;7.046;2024-03-23T03:24:01;8.97;;;1.87;;
5795;SDS011;2924;51.458;7.046;2024-03-23T03:26:26;5.83;;;1.60;;
5795;SDS011;2924;51.458;7.046;2024-03-23T03:28:52;6.53;;;1.63;;
5795;SDS011;2924;51.458;7.046;2024-03-23T03:31:18;5.70;;;1.50;;
5795;SDS011;2924;51.458;7.046;2024-03-23T03:33:44;18.67;;;2.00;;
5795;SDS011;2924;51.458;7.046;2024-03-23T03:36:10;5.37;;;1.87;;
5795;SDS011;2924;51.458;7.046;2024-03-23T03:38:36;13.63;;;2.30;;
5795;SDS011;2924;51.458;7.046;2024-03-23T03:41:02;20.30;;;2.47;;
5795;SDS011;2924;51.458;7.046;2024-03-23T03:43:27;5.80;;;1.23;;
5795;SDS011;2924;51.458;7.046;2024-03-23T03:45:56;8.13;;;1.93;;
5795;SDS011;2924;51.458;7.046;2024-03-23T03:48:23;6.50;;;2.50;;
5795;SDS011;2924;51.458;7.046;2024-03-23T03:50:48;10.53;;;2.33;;
5795;SDS011;2924;51.458;7.046;2024-03-23T03:53:14;16.20;;;2.53;;
5795;SDS011;2924;51.458;7.046;2024-03-23T03:55:40;5.10;;;1.93;;
5795;SDS011;2924;51.458;7.046;2024-03-23T03:58:05;6.87;;;2.50;;
5795;SDS011;2924;51.458;7.046;2024-03-23T04:00:31;11.27;;;2.90;;
5795;SDS011;2924;51.458;7.046;2024-03-23T04:02:57;13.33;;;3.10;;
5795;SDS011;2924;51.458;7.046;2024-03-23T04:05:23;13.90;;;3.90;;
5795;SDS011;2924;51.458;7.046;2024-03-23T04:07:48;15.53;;;4.37;;
5795;SDS011;2924;51.458;7.046;2024-03-23T04:10:14;20.03;;;5.93;;
5795;SDS011;2924;51.458;7.046;2024-03-23T04:12:40;15.60;;;5.20;;
5795;SDS011;2924;51.458;7.046;2024-03-23T04:15:06;18.03;;;4.57;;
5795;SDS011;2924;51.458;7.046;2024-03-23T04:17:33;23.90;;;5.00;;
5795;SDS011;2924;51.458;7.046;2024-03-23T04:19:59;9.10;;;3.63;;
5795;SDS011;2924;51.458;7.046;2024-03-23T04:22:26;24.00;;;5.60;;
5795;SDS011;2924;51.458;7.046;2024-03-23T04:24:57;17.07;;;4.23;;
5795;SDS011;2924;51.458;7.046;2024-03-23T04:27:23;19.60;;;4.70;;
5795;SDS011;2924;51.458;7.046;2024-03-23T04:29:49;17.60;;;3.80;;
5795;SDS011;2924;51.458;7.046;2024-03-23T04:32:15;11.17;;;4.13;;
5795;SDS011;2924;51.458;7.046;2024-03-23T04:34:41;12.03;;;3.33;;
5795;SDS011;2924;51.458;7.046;2024-03-23T04:37:08;15.50;;;3.47;;
5795;SDS011;2924;51.458;7.046;2024-03-23T04:39:34;20.20;;;3.80;;
5795;SDS011;2924;51.458;7.046;2024-03-23T04:42:03;9.33;;;3.20;;
5795;SDS011;2924;51.458;7.046;2024-03-23T04:44:29;12.93;;;2.63;;
5795;SDS011;2924;51.458;7.046;2024-03-23T04:46:56;19.37;;;3.40;;
5795;SDS011;2924;51.458;7.046;2024-03-23T04:49:30;13.63;;;2.53;;
5795;SDS011;2924;51.458;7.046;2024-03-23T04:51:56;21.23;;;4.93;;
5795;SDS011;2924;51.458;7.046;2024-03-23T04:54:22;17.03;;;3.00;;
5795;SDS011;2924;51.458;7.046;2024-03-23T04:56:47;24.90;;;3.13;;
5795;SDS011;2924;51.458;7.046;2024-03-23T04:59:13;11.47;;;2.60;;
5795;SDS011;2924;51.458;7.046;2024-03-23T05:01:39;24.70;;;3.80;;
5795;SDS011;2924;51.458;7.046;2024-03-23T05:04:07;14.30;;;4.63;;
5795;SDS011;2924;51.458;7.046;2024-03-23T05:06:32;13.20;;;4.53;;
5795;SDS011;2924;51.458;7.046;2024-03-23T05:08:59;25.77;;;5.10;;
5795;SDS011;2924;51.458;7.046;2024-03-23T05:11:25;12.17;;;3.93;;
5795;SDS011;2924;51.458;7.046;2024-03-23T05:13:50;15.53;;;5.20;;
5795;SDS011;2924;51.458;7.046;2024-03-23T05:16:16;12.43;;;6.00;;
5795;SDS011;2924;51.458;7.046;2024-03-23T05:18:41;17.40;;;7.40;;
5795;SDS011;2924;51.458;7.046;2024-03-23T05:21:07;24.23;;;6.40;;
5795;SDS011;2924;51.458;7.046;2024-03-23T05:23:33;21.07;;;8.00;;
5795;SDS011;2924;51.458;7.046;2024-03-23T05:25:58;24.77;;;9.37;;
5795;SDS011;2924;51.458;7.046;2024-03-23T05:28:24;22.20;;;9.20;;
5795;SDS011;2924;51.458;7.046;2024-03-23T05:30:50;40.50;;;10.87;;
5795;SDS011;2924;51.458;7.046;2024-03-23T05:33:17;22.40;;;10.50;;
5795;SDS011;2924;51.458;7.046;2024-03-23T05:35:44;24.07;;;10.37;;
5795;SDS011;2924;51.458;7.046;2024-03-23T05:38:10;22.00;;;10.50;;
5795;SDS011;2924;51.458;7.046;2024-03-23T05:40:35;21.50;;;8.20;;
5795;SDS011;2924;51.458;7.046;2024-03-23T05:43:02;23.97;;;8.60;;
5795;SDS011;2924;51.458;7.046;2024-03-23T05:45:28;16.70;;;7.40;;
5795;SDS011;2924;51.458;7.046;2024-03-23T05:47:54;24.83;;;7.80;;
5795;SDS011;2924;51.458;7.046;2024-03-23T05:50:22;23.10;;;8.60;;
5795;SDS011;2924;51.458;7.046;2024-03-23T05:52:48;16.03;;;7.97;;
5795;SDS011;2924;51.458;7.046;2024-03-23T05:55:14;24.13;;;7.53;;
5795;SDS011;2924;51.458;7.046;2024-03-23T05:57:40;18.93;;;7.97;;
5795;SDS011;2924;51.458;7.046;2024-03-23T06:00:06;19.87;;;6.93;;
5795;SDS011;2924;51.458;7.046;2024-03-23T06:02:40;31.27;;;6.93;;
5795;SDS011;2924;51.458;7.046;2024-03-23T06:05:07;15.83;;;7.30;;
5795;SDS011;2924;51.458;7.046;2024-03-23T06:07:32;32.57;;;7.73;;
5795;SDS011;2924;51.458;7.046;2024-03-23T06:09:58;25.30;;;8.03;;
5795;SDS011;2924;51.458;7.046;2024-03-23T06:12:24;13.10;;;6.67;;
5795;SDS011;2924;51.458;7.046;2024-03-23T06:14:49;31.53;;;8.77;;
5795;SDS011;2924;51.458;7.046;2024-03-23T06:17:15;18.90;;;8.97;;
5795;SDS011;2924;51.458;7.046;2024-03-23T06:19:40;20.13;;;8.70;;
5795;SDS011;2924;51.458;7.046;2024-03-23T06:22:06;18.17;;;9.70;;
5795;SDS011;2924;51.458;7.046;2024-03-23T06:24:32;22.33;;;10.40;;
5795;SDS011;2924;51.458;7.046;2024-03-23T06:26:57;16.97;;;8.57;;
5795;SDS011;2924;51.458;7.046;2024-03-23T06:29:23;24.77;;;8.77;;
5795;SDS011;2924;51.458;7.046;2024-03-23T06:31:53;27.37;;;9.97;;
5795;SDS011;2924;51.458;7.046;2024-03-23T06:34:19;33.80;;;10.70;;
5795;SDS011;2924;51.458;7.046;2024-03-23T06:36:46;24.90;;;10.43;;
5795;SDS011;2924;51.458;7.046;2024-03-23T06:39:12;24.77;;;11.30;;
5795;SDS011;2924;51.458;7.046;2024-03-23T06:41:40;22.47;;;11.40;;
5795;SDS011;2924;51.458;7.046;2024-03-23T06:44:16;28.60;;;12.80;;
5795;SDS011;2924;51.458;7.046;2024-03-23T06:46:42;30.07;;;14.10;;
5795;SDS011;2924;51.458;7.046;2024-03-23T06:49:08;33.13;;;13.10;;
5795;SDS011;2924;51.458;7.046;2024-03-23T06:51:33;50.83;;;12.63;;
5795;SDS011;2924;51.458;7.046;2024-03-23T06:53:59;27.53;;;12.60;;
5795;SDS011;2924;51.458;7.046;2024-03-23T06:56:24;31.10;;;14.37;;
5795;SDS011;2924;51.458;7.046;2024-03-23T06:58:50;31.47;;;12.83;;
5795;SDS011;2924;51.458;7.046;2024-03-23T07:01:16;33.00;;;15.37;;
5795;SDS011;2924;51.458;7.046;2024-03-23T07:03:41;29.30;;;15.27;;
5795;SDS011;2924;51.458;7.046;2024-03-23T07:06:09;31.17;;;14.00;;
5795;SDS011;2924;51.458;7.046;2024-03-23T07:08:35;35.07;;;14.20;;
5795;SDS011;2924;51.458;7.046;2024-03-23T07:11:01;43.50;;;14.50;;
5795;SDS011;2924;51.458;7.046;2024-03-23T07:13:27;35.77;;;13.73;;
5795;SDS011;2924;51.458;7.046;2024-03-23T07:15:53;32.00;;;14.27;;
5795;SDS011;2924;51.458;7.046;2024-03-23T07:18:23;30.30;;;12.67;;
5795;SDS011;2924;51.458;7.046;2024-03-23T07:20:52;37.97;;;12.07;;
5795;SDS011;2924;51.458;7.046;2024-03-23T07:23:22;21.93;;;10.33;;
5795;SDS011;2924;51.458;7.046;2024-03-23T07:25:57;17.93;;;11.17;;
5795;SDS011;2924;51.458;7.046;2024-03-23T07:28:27;19.17;;;9.97;;
5795;SDS011;2924;51.458;7.046;2024-03-23T07:33:28;21.83;;;9.40;;
5795;SDS011;2924;51.458;7.046;2024-03-23T07:35:53;22.90;;;9.27;;
5795;SDS011;2924;51.458;7.046;2024-03-23T07:38:19;13.57;;;8.20;;
5795;SDS011;2924;51.458;7.046;2024-03-23T07:40:45;16.93;;;7.43;;
5795;SDS011;2924;51.458;7.046;2024-03-23T07:43:10;17.90;;;6.77;;
5795;SDS011;2924;51.458;7.046;2024-03-23T07:45:36;11.87;;;5.20;;
5795;SDS011;2924;51.458;7.046;2024-03-23T07:48:03;13.77;;;6.20;;
5795;SDS011;2924;51.458;7.046;2024-03-23T07:50:29;12.80;;;5.83;;
5795;SDS011;2924;51.458;7.046;2024-03-23T07:52:55;18.17;;;8.47;;
5795;SDS011;2924;51.458;7.046;2024-03-23T07:55:20;13.90;;;5.93;;
5795;SDS011;2924;51.458;7.046;2024-03-23T07:57:46;17.63;;;5.10;;
5795;SDS011;2924;51.458;7.046;2024-03-23T08:00:12;15.67;;;6.47;;
5795;SDS011;2924;51.458;7.046;2024-03-23T08:02:38;14.70;;;4.97;;
5795;SDS011;2924;51.458;7.046;2024-03-23T08:05:04;15.67;;;5.27;;
5795;SDS011;2924;51.458;7.046;2024-03-23T08:07:30;12.50;;;5.27;;
5795;SDS011;2924;51.458;7.046;2024-03-23T08:09:55;11.60;;;5.30;;
5795;SDS011;2924;51.458;7.046;2024-03-23T08:12:21;11.47;;;4.40;;
5795;SDS011;2924;51.458;7.046;2024-03-23T08:14:46;9.53;;;4.27;;
5795;SDS011;2924;51.458;7.046;2024-03-23T08:17:12;14.23;;;3.83;;
5795;SDS011;2924;51.458;7.046;2024-03-23T08:19:37;10.80;;;4.10;;
5795;SDS011;2924;51.458;7.046;2024-03-23T08:22:03;11.60;;;5.10;;
5795;SDS011;2924;51.458;7.046;2024-03-23T08:24:28;16.47;;;4.30;;
5795;SDS011;2924;51.458;7.046;2024-03-23T08:26:55;11.30;;;4.33;;
5795;SDS011;2924;51.458;7.046;2024-03-23T08:29:20;17.77;;;5.57;;
5795;SDS011;2924;51.458;7.046;2024-03-23T08:31:46;15.67;;;4.77;;
5795;SDS011;2924;51.458;7.046;2024-03-23T08:34:12;18.20;;;3.50;;
5795;SDS011;2924;51.458;7.046;2024-03-23T08:36:37;13.57;;;3.60;;
5795;SDS011;2924;51.458;7.046;2024-03-23T08:39:03;10.27;;;3.60;;
5795;SDS011;2924;51.458;7.046;2024-03-23T08:41:28;14.70;;;3.73;;
5795;SDS011;2924;51.458;7.046;2024-03-23T08:43:54;10.07;;;3.17;;
5795;SDS011;2924;51.458;7.046;2024-03-23T08:46:19;18.70;;;4.53;;
5795;SDS011;2924;51.458;7.046;2024-03-23T08:48:45;10.40;;;3.53;;
5795;SDS011;2924;51.458;7.046;2024-03-23T08:51:14;8.67;;;3.10;;
5795;SDS011;2924;51.458;7.046;2024-03-23T08:53:41;15.37;;;3.50;;
5795;SDS011;2924;51.458;7.046;2024-03-23T08:56:08;12.53;;;3.50;;
5795;SDS011;2924;51.458;7.046;2024-03-23T08:58:34;9.70;;;3.53;;
5795;SDS011;2924;51.458;7.046;2024-03-23T09:03:38;10.20;;;3.20;;
5795;SDS011;2924;51.458;7.046;2024-03-23T09:06:07;11.63;;;2.63;;
5795;SDS011;2924;51.458;7.046;2024-03-23T09:08:34;5.67;;;2.10;;
5795;SDS011;2924;51.458;7.046;2024-03-23T09:11:03;5.80;;;1.80;;
5795;SDS011;2924;51.458;7.046;2024-03-23T09:13:31;5.93;;;2.00;;
5795;SDS011;2924;51.458;7.046;2024-03-23T09:16:00;6.93;;;2.00;;
5795;SDS011;2924;51.458;7.046;2024-03-23T09:18:26;9.77;;;2.40;;
5795;SDS011;2924;51.458;7.046;2024-03-23T09:20:52;5.70;;;1.90;;
5795;SDS011;2924;51.458;7.046;2024-03-23T09:23:20;12.40;;;2.60;;
5795;SDS011;2924;51.458;7.046;2024-03-23T09:25:46;9.80;;;2.30;;
5795;SDS011;2924;51.458;7.046;2024-03-23T09:28:11;8.20;;;2.43;;
5795;SDS011;2924;51.458;7.046;2024-03-23T09:30:37;11.77;;;3.10;;
5795;SDS011;2924;51.458;7.046;2024-03-23T09:33:11;8.13;;;2.50;;
5795;SDS011;2924;51.458;7.046;2024-03-23T09:35:38;5.23;;;2.10;;
5795;SDS011;2924;51.458;7.046;2024-03-23T09:38:04;8.40;;;2.70;;
5795;SDS011;2924;51.458;7.046;2024-03-23T09:40:29;7.43;;;2.70;;
5795;SDS011;2924;51.458;7.046;2024-03-23T09:42:56;8.60;;;3.07;;
5795;SDS011;2924;51.458;7.046;2024-03-23T09:45:23;11.57;;;2.97;;
5795;SDS011;2924;51.458;7.046;2024-03-23T09:47:52;9.50;;;2.73;;
5795;SDS011;2924;51.458;7.046;2024-03-23T09:50:18;6.10;;;2.57;;
5795;SDS011;2924;51.458;7.046;2024-03-23T09:52:45;12.93;;;2.50;;
5795;SDS011;2924;51.458;7.046;2024-03-23T09:55:11;7.93;;;3.10;;
5795;SDS011;2924;51.458;7.046;2024-03-23T09:57:37;5.43;;;1.90;;
5795;SDS011;2924;51.458;7.046;2024-03-23T10:00:03;10.60;;;2.80;;
5795;SDS011;2924;51.458;7.046;2024-03-23T10:02:29;7.67;;;2.07;;
5795;SDS011;2924;51.458;7.046;2024-03-23T10:04:55;8.60;;;2.80;;
5795;SDS011;2924;51.458;7.046;2024-03-23T10:07:22;23.63;;;3.87;;
5795;SDS011;2924;51.458;7.046;2024-03-23T10:09:48;6.60;;;2.33;;
5795;SDS011;2924;51.458;7.046;2024-03-23T10:12:16;10.93;;;2.47;;
5795;SDS011;2924;51.458;7.046;2024-03-23T10:14:43;6.20;;;1.90;;
5795;SDS011;2924;51.458;7.046;2024-03-23T10:17:12;4.27;;;1.50;;
5795;SDS011;2924;51.458;7.046;2024-03-23T10:19:45;8.27;;;2.20;;
5795;SDS011;2924;51.458;7.046;2024-03-23T10:22:17;6.07;;;2.37;;
5795;SDS011;2924;51.458;7.046;2024-03-23T10:24:47;10.17;;;1.43;;
5795;SDS011;2924;51.458;7.046;2024-03-23T10:27:17;9.00;;;2.03;;
5795;SDS011;2924;51.458;7.046;2024-03-23T10:29:44;4.30;;;1.70;;
5795;SDS011;2924;51.458;7.046;2024-03-23T10:32:11;4.23;;;1.60;;
5795;SDS011;2924;51.458;7.046;2024-03-23T10:34:38;6.33;;;1.40;;
5795;SDS011;2924;51.458;7.046;2024-03-23T10:37:04;7.40;;;1.57;;
5795;SDS011;2924;51.458;7.046;2024-03-23T10:39:37;3.77;;;1.40;;
5795;SDS011;2924;51.458;7.046;2024-03-23T10:42:05;7.40;;;1.47;;
5795;SDS011;2924;51.458;7.046;2024-03-23T10:44:32;4.23;;;1.60;;
5795;SDS011;2924;51.458;7.046;2024-03-23T10:46:59;7.80;;;1.73;;
5795;SDS011;2924;51.458;7.046;2024-03-23T10:49:26;6.20;;;2.07;;
5795;SDS011;2924;51.458;7.046;2024-03-23T10:51:59;8.33;;;1.30;;
5795;SDS011;2924;51.458;7.046;2024-03-23T10:54:26;3.03;;;0.53;;
5795;SDS011;2924;51.458;7.046;2024-03-23T10:57:14;0.43;;;0.40;;
5795;SDS011;2924;51.458;7.046;2024-03-23T10:59:39;3.90;;;0.60;;
5795;SDS011;2924;51.458;7.046;2024-03-23T11:02:05;8.33;;;0.90;;
5795;SDS011;2924;51.458;7.046;2024-03-23T11:04:43;1.60;;;0.50;;
5795;SDS011;2924;51.458;7.046;2024-03-23T11:09:50;1.33;;;0.70;;
5795;SDS011;2924;51.458;7.046;2024-03-23T11:14:52;0.47;;;0.47;;
5795;SDS011;2924;51.458;7.046;2024-03-23T11:17:24;4.97;;;0.60;;
5795;SDS011;2924;51.458;7.046;2024-03-23T11:22:53;0.73;;;0.50;;
5795;SDS011;2924;51.458;7.046;2024-03-23T11:25:13;1.20;;;0.77;;
5795;SDS011;2924;51.458;7.046;2024-03-23T11:27:43;4.87;;;0.90;;
5795;SDS011;2924;51.458;7.046;2024-03-23T11:30:17;1.47;;;1.00;;
5795;SDS011;2924;51.458;7.046;2024-03-23T11:32:47;1.50;;;0.90;;
5795;SDS011;2924;51.458;7.046;2024-03-23T11:35:30;2.90;;;1.17;;
5795;SDS011;2924;51.458;7.046;2024-03-23T11:38:09;1.97;;;1.10;;
5795;SDS011;2924;51.458;7.046;2024-03-23T11:40:42;5.37;;;0.93;;
5795;SDS011;2924;51.458;7.046;2024-03-23T11:43:12;5.20;;;1.70;;
5795;SDS011;2924;51.458;7.046;2024-03-23T11:45:40;5.03;;;1.30;;
5795;SDS011;2924;51.458;7.046;2024-03-23T11:48:14;6.20;;;1.80;;
5795;SDS011;2924;51.458;7.046;2024-03-23T11:50:48;4.37;;;1.33;;
5795;SDS011;2924;51.458;7.046;2024-03-23T11:56:03;5.73;;;1.00;;
5795;SDS011;2924;51.458;7.046;2024-03-23T11:58:27;10.40;;;2.07;;
5795;SDS011;2924;51.458;7.046;2024-03-23T12:01:00;5.90;;;1.47;;
5795;SDS011;2924;51.458;7.046;2024-03-23T12:03:30;2.80;;;1.13;;
5795;SDS011;2924;51.458;7.046;2024-03-23T12:06:01;2.53;;;1.03;;
5795;SDS011;2924;51.458;7.046;2024-03-23T12:08:31;2.60;;;0.80;;
5795;SDS011;2924;51.458;7.046;2024-03-23T12:13:30;1.77;;;1.20;;
5795;SDS011;2924;51.458;7.046;2024-03-23T12:15:57;4.90;;;1.43;;
5795;SDS011;2924;51.458;7.046;2024-03-23T12:18:49;3.50;;;1.07;;
5795;SDS011;2924;51.458;7.046;2024-03-23T12:21:18;3.40;;;0.90;;
5795;SDS011;2924;51.458;7.046;2024-03-23T12:23:44;3.00;;;1.17;;
5795;SDS011;2924;51.458;7.046;2024-03-23T12:26:11;2.43;;;0.80;;
5795;SDS011;2924;51.458;7.046;2024-03-23T12:28:38;4.50;;;1.00;;
5795;SDS011;2924;51.458;7.046;2024-03-23T12:31:04;4.23;;;0.90;;
5795;SDS011;2924;51.458;7.046;2024-03-23T12:33:30;2.10;;;1.10;;
5795;SDS011;2924;51.458;7.046;2024-03-23T12:35:56;5.27;;;1.50;;
5795;SDS011;2924;51.458;7.046;2024-03-23T12:38:21;3.80;;;1.33;;
5795;SDS011;2924;51.458;7.046;2024-03-23T12:40:47;3.97;;;1.23;;
5795;SDS011;2924;51.458;7.046;2024-03-23T12:43:15;3.63;;;1.07;;
5795;SDS011;2924;51.458;7.046;2024-03-23T12:45:48;1.23;;;1.07;;
5795;SDS011;2924;51.458;7.046;2024-03-23T12:48:14;4.53;;;1.30;;
5795;SDS011;2924;51.458;7.046;2024-03-23T12:50:40;4.27;;;1.33;;
5795;SDS011;2924;51.458;7.046;2024-03-23T12:53:06;3.73;;;1.33;;
5795;SDS011;2924;51.458;7.046;2024-03-23T12:55:32;7.17;;;1.40;;
5795;SDS011;2924;51.458;7.046;2024-03-23T12:57:59;2.03;;;1.40;;
5795;SDS011;2924;51.458;7.046;2024-03-23T13:00:25;8.97;;;1.60;;
5795;SDS011;2924;51.458;7.046;2024-03-23T13:02:50;8.63;;;1.33;;
5795;SDS011;2924;51.458;7.046;2024-03-23T13:05:16;2.97;;;0.83;;
5795;SDS011;2924;51.458;7.046;2024-03-23T13:07:42;2.97;;;0.87;;
5795;SDS011;2924;51.458;7.046;2024-03-23T13:10:07;1.17;;;1.10;;
5795;SDS011;2924;51.458;7.046;2024-03-23T13:12:34;2.43;;;0.97;;
5795;SDS011;2924;51.458;7.046;2024-03-23T13:15:00;4.70;;;1.40;;
5795;SDS011;2924;51.458;7.046;2024-03-23T13:17:26;3.50;;;1.43;;
5795;SDS011;2924;51.458;7.046;2024-03-23T13:19:52;0.83;;;0.83;;
5795;SDS011;2924;51.458;7.046;2024-03-23T13:22:18;3.27;;;0.60;;
5795;SDS011;2924;51.458;7.046;2024-03-23T13:24:44;2.57;;;0.70;;
5795;SDS011;2924;51.458;7.046;2024-03-23T13:27:10;0.70;;;0.50;;
5795;SDS011;2924;51.458;7.046;2024-03-23T13:29:36;2.50;;;1.00;;
5795;SDS011;2924;51.458;7.046;2024-03-23T13:32:04;1.43;;;0.70;;
5795;SDS011;2924;51.458;7.046;2024-03-23T13:34:31;5.67;;;1.20;;
5795;SDS011;2924;51.458;7.046;2024-03-23T13:36:56;2.63;;;1.70;;
5795;SDS011;2924;51.458;7.046;2024-03-23T13:39:23;4.97;;;1.97;;
5795;SDS011;2924;51.458;7.046;2024-03-23T13:41:49;8.60;;;1.90;;
5795;SDS011;2924;51.458;7.046;2024-03-23T13:44:14;5.03;;;1.60;;
5795;SDS011;2924;51.458;7.046;2024-03-23T13:46:41;9.70;;;1.27;;
5795;SDS011;2924;51.458;7.046;2024-03-23T13:49:18;4.53;;;1.10;;
5795;SDS011;2924;51.458;7.046;2024-03-23T13:51:51;10.40;;;1.37;;
5795;SDS011;2924;51.458;7.046;2024-03-23T13:54:17;3.03;;;1.33;;
5795;SDS011;2924;51.458;7.046;2024-03-23T13:56:43;8.77;;;1.20;;
5795;SDS011;2924;51.458;7.046;2024-03-23T13:59:09;5.03;;;1.27;;
5795;SDS011;2924;51.458;7.046;2024-03-23T14:01:35;7.73;;;1.80;;
5795;SDS011;2924;51.458;7.046;2024-03-23T14:04:00;2.97;;;1.43;;
5795;SDS011;2924;51.458;7.046;2024-03-23T14:06:26;3.40;;;1.07;;
5795;SDS011;2924;51.458;7.046;2024-03-23T14:08:52;4.90;;;1.43;;
5795;SDS011;2924;51.458;7.046;2024-03-23T14:11:18;2.13;;;0.60;;
5795;SDS011;2924;51.458;7.046;2024-03-23T14:13:44;1.77;;;0.70;;
5795;SDS011;2924;51.458;7.046;2024-03-23T14:16:09;2.20;;;0.93;;
5795;SDS011;2924;51.458;7.046;2024-03-23T14:18:35;2.17;;;1.30;;
5795;SDS011;2924;51.458;7.046;2024-03-23T14:21:01;10.93;;;1.30;;
5795;SDS011;2924;51.458;7.046;2024-03-23T14:23:28;1.37;;;0.83;;
5795;SDS011;2924;51.458;7.046;2024-03-23T14:25:54;5.23;;;1.00;;
5795;SDS011;2924;51.458;7.046;2024-03-23T14:28:21;2.73;;;1.00;;
5795;SDS011;2924;51.458;7.046;2024-03-23T14:30:48;2.97;;;1.17;;
5795;SDS011;2924;51.458;7.046;2024-03-23T14:33:14;2.87;;;0.67;;
5795;SDS011;2924;51.458;7.046;2024-03-23T14:35:40;6.30;;;1.00;;
5795;SDS011;2924;51.458;7.046;2024-03-23T14:38:06;1.37;;;0.63;;
5795;SDS011;2924;51.458;7.046;2024-03-23T14:40:32;1.03;;;0.60;;
5795;SDS011;2924;51.458;7.046;2024-03-23T14:42:58;2.90;;;0.70;;
5795;SDS011;2924;51.458;7.046;2024-03-23T14:45:23;2.93;;;0.83;;
5795;SDS011;2924;51.458;7.046;2024-03-23T14:47:50;2.73;;;0.73;;
5795;SDS011;2924;51.458;7.046;2024-03-23T14:50:16;1.87;;;0.73;;
5795;SDS011;2924;51.458;7.046;2024-03-23T14:52:43;4.23;;;1.20;;
5795;SDS011;2924;51.458;7.046;2024-03-23T14:55:12;5.67;;;1.40;;
5795;SDS011;2924;51.458;7.046;2024-03-23T14:57:38;4.93;;;0.53;;
5795;SDS011;2924;51.458;7.046;2024-03-23T15:00:07;2.80;;;0.73;;
5795;SDS011;2924;51.458;7.046;2024-03-23T15:02:35;1.43;;;0.63;;
5795;SDS011;2924;51.458;7.046;2024-03-23T15:05:01;21.07;;;1.03;;
5795;SDS011;2924;51.458;7.046;2024-03-23T15:07:29;2.97;;;0.80;;
5795;SDS011;2924;51.458;7.046;2024-03-23T15:09:55;3.63;;;1.37;;
5795;SDS011;2924;51.458;7.046;2024-03-23T15:12:21;1.23;;;0.67;;
5795;SDS011;2924;51.458;7.046;2024-03-23T15:14:47;2.63;;;0.70;;
5795;SDS011;2924;51.458;7.046;2024-03-23T15:17:12;1.83;;;0.73;;
5795;SDS011;2924;51.458;7.046;2024-03-23T15:19:38;4.40;;;1.00;;
5795;SDS011;2924;51.458;7.046;2024-03-23T15:22:04;4.93;;;1.60;;
5795;SDS011;2924;51.458;7.046;2024-03-23T15:24:30;2.30;;;0.93;;
5795;SDS011;2924;51.458;7.046;2024-03-23T15:26:56;3.13;;;1.10;;
5795;SDS011;2924;51.458;7.046;2024-03-23T15:29:22;3.33;;;0.70;;
5795;SDS011;2924;51.458;7.046;2024-03-23T15:31:48;2.10;;;1.37;;
5795;SDS011;2924;51.458;7.046;2024-03-23T15:34:17;7.20;;;1.17;;
5795;SDS011;2924;51.458;7.046;2024-03-23T15:36:49;2.57;;;0.90;;
5795;SDS011;2924;51.458;7.046;2024-03-23T15:39:18;3.37;;;1.00;;
5795;SDS011;2924;51.458;7.046;2024-03-23T15:41:44;6.30;;;1.03;;
5795;SDS011;2924;51.458;7.046;2024-03-23T15:44:10;0.70;;;0.70;;
5795;SDS011;2924;51.458;7.046;2024-03-23T15:46:36;5.17;;;1.10;;
5795;SDS011;2924;51.458;7.046;2024-03-23T15:49:02;5.13;;;1.33;;
5795;SDS011;2924;51.458;7.046;2024-03-23T15:51:27;2.43;;;0.73;;
5795;SDS011;2924;51.458;7.046;2024-03-23T15:53:57;3.37;;;0.73;;
5795;SDS011;2924;51.458;7.046;2024-03-23T15:56:26;2.77;;;1.00;;
5795;SDS011;2924;51.458;7.046;2024-03-23T15:58:54;2.73;;;0.93;;
5795;SDS011;2924;51.458;7.046;2024-03-23T16:01:20;3.53;;;0.67;;
5795;SDS011;2924;51.458;7.046;2024-03-23T16:03:46;5.60;;;0.87;;
5795;SDS011;2924;51.458;7.046;2024-03-23T16:06:12;5.43;;;1.30;;
5795;SDS011;2924;51.458;7.046;2024-03-23T16:08:37;5.33;;;1.03;;
5795;SDS011;2924;51.458;7.046;2024-03-23T16:11:04;2.90;;;1.10;;
5795;SDS011;2924;51.458;7.046;2024-03-23T16:13:31;3.13;;;0.83;;
5795;SDS011;2924;51.458;7.046;2024-03-23T16:16:01;2.00;;;0.70;;
5795;SDS011;2924;51.458;7.046;2024-03-23T16:18:34;4.03;;;1.47;;